Merci d'essayer une autre recherche
| Libellé | Marché | Devise | ||
|---|---|---|---|---|
| BAES | Londres | GBP | Temps réel | |
| 3LBA | Londres | GBP | Temps réel | |
| 3SBA | Londres | GBP | Temps réel | |
| BAl | BATS Europe | GBP | Différé | |
| BAESF | OTC Markets | USD | Différé | |
| BAESY | OTC Markets | USD | Différé | |
| BAES | Francfort | EUR | Différé | |
| BAES | TradeGate | EUR | Différé |
| Début | Utilisateur | Call | Ouverture | Date de fin | Var. % |
|---|---|---|---|---|---|
| 01/05/2026 | Perico de los Palotes | 2042.50 | +0.39% | ||
| 30/04/2026 | sophy saphy | 2039.50 | -0.25% | ||
| 29/04/2026 | Augustyn Szymański | 2001.09 | +1.67% | ||
| 28/04/2026 | Boris Ivanov | 2039.42 | +0.24% | ||
| 27/04/2026 | Mark Viant | 2020.50 | 27/04/2026 @ 2036.00 | +0.77% | |
| 27/04/2026 | Michael McClure | 2020.50 | 27/04/2026 @ 2036.00 | +0.77% | |
| 23/04/2026 | ian foulkes | 2051.47 | -0.83% | ||
| 23/04/2026 | Perico de los Palotes | 2073.00 | 27/04/2026 @ 2036.00 | +1.78% | |
| 23/04/2026 | Ramadan Hasan | 2113.00 | 27/04/2026 @ 2036.00 | -3.64% | |
| 22/04/2026 | Hans Georg Groeger | 2136.00 | -4.75% | ||
| 21/04/2026 | John Westwell | 2144.00 | -5.11% | ||
| 20/04/2026 | Tobias Joppich | 2255.50 | 20/04/2026 @ 2239.50 | -0.71% | |
| 17/04/2026 | Mark Viant | 2257.00 | 20/04/2026 @ 2239.50 | -0.78% | |
| 15/04/2026 | Nathan touitou | 2237.50 | -9.07% | ||
| 14/04/2026 | MANUEL SANCHEZ | 2232.50 | 20/04/2026 @ 2239.50 | +0.31% | |
| 14/04/2026 | Tiago Gonçalves | 2220.50 | 20/04/2026 @ 2239.50 | +0.86% | |
| 13/04/2026 | Tiago Gonçalves | 2194.00 | 13/04/2026 @ 2245.50 | +2.35% | |
| 13/04/2026 | Roberto Baronchelli | 2194.00 | 13/04/2026 @ 2245.50 | +2.35% | |
| 10/04/2026 | Perico de los Palotes | 2199.00 | 13/04/2026 @ 2245.50 | -2.11% | |
| 10/04/2026 | Knowle Properties | 2208.00 | 01/05/2026 @ 2034.50 | -7.86% | |
| 08/04/2026 | MANUEL SANCHEZ | 2297.00 | 13/04/2026 @ 2245.50 | -2.24% | |
| 01/04/2026 | MANUEL SANCHEZ | 2299.00 | 06/04/2026 @ 2289.00 | -0.43% | |
| 01/04/2026 | Sonia Marien | 2297.00 | 06/04/2026 @ 2289.00 | -0.35% | |
| 01/04/2026 | 2263.37 | 24/04/2026 @ 2020.50 | -10.73% | ||
| 31/03/2026 | wick John | 2187.00 | 06/04/2026 @ 2289.00 | +4.66% | |
| 31/03/2026 | José Luis Vega | 2132.00 | 06/04/2026 @ 2289.00 | -7.36% | |
| 30/03/2026 | O Oliver Reeves | 2085.17 | 24/04/2026 @ 2020.50 | -3.10% | |
| 28/03/2026 | Lothar Rumlich | 2067.00 | 30/03/2026 @ 2132.00 | +3.14% | |
| 27/03/2026 | Rudi Geleleens | 2062.06 | 17/04/2026 @ 2255.50 | +9.38% | |
| 26/03/2026 | Djudju77 | 2122.00 | 30/03/2026 @ 2132.00 | -0.47% | |
| 25/03/2026 | Daan Houbrechts | 2157.00 | 17/04/2026 @ 2255.50 | +4.57% | |
| 24/03/2026 | Niente E nessuno | 2121.00 | 30/03/2026 @ 2132.00 | -0.52% | |
| 24/03/2026 | Julio Fernandez | 2140.00 | 30/03/2026 @ 2132.00 | -0.37% | |
| 20/03/2026 | Clive Chamberlain | 2264.00 | 23/03/2026 @ 2140.00 | -5.48% | |
| 19/03/2026 | Charlie South | 2275.00 | 10/04/2026 @ 2194.00 | -3.56% | |
| 19/03/2026 | MANUEL SANCHEZ | 2330.00 | 23/03/2026 @ 2140.00 | -8.15% | |
| 18/03/2026 | Max Paine | 2350.59 | 23/03/2026 @ 2140.00 | -8.96% | |
| 17/03/2026 | Riccardo Brandtner | 2330.00 | 10/04/2026 @ 2194.00 | -5.84% | |
| 16/03/2026 | Harri Saarinen | 2300.00 | 23/03/2026 @ 2189.00 | -4.83% | |
| 16/03/2026 | Kari Rahja | 2307.00 | 16/03/2026 @ 2322.00 | +0.65% | |
| 14/03/2026 | Filippo Ponchia | 2307.00 | 16/03/2026 @ 2322.00 | +0.65% | |
| 13/03/2026 | John Westwell | 2310.00 | 03/04/2026 @ 2289.00 | -0.91% | |
| 13/03/2026 | Tiago Gonçalves | 2305.00 | 03/04/2026 @ 2289.00 | -0.69% | |
| 12/03/2026 | Gerard Lhomme | 2293.00 | 03/04/2026 @ 2289.00 | -0.17% | |
| 11/03/2026 | Agustin Gonzalez Diaz | 2249.00 | 16/03/2026 @ 2322.00 | -3.25% | |
| 10/03/2026 | Yigal Goder | 2224.00 | 03/04/2026 @ 2289.00 | +2.92% | |
| 09/03/2026 | George Arslanoglou | 2235.00 | 16/03/2026 @ 2322.00 | +3.89% | |
| 06/03/2026 | Tiago Gonçalves | 2179.00 | 09/03/2026 @ 2259.00 | +3.67% | |
| 05/03/2026 | Steve Dunwell | 2163.00 | 27/03/2026 @ 2067.00 | -4.44% | |
| 05/03/2026 | O Oliver Reeves | 2176.00 | 27/03/2026 @ 2067.00 | -5.01% |
Voulez-vous vraiment bloquer %USER_NAME% ?
Si vous continuez, vous et %USER_NAME% ne verrez plus vos publications Investing.com mutuelles.
%USER_NAME% a bien été ajouté à votre Liste d’utilisateurs bloqués
Vous venez de débloquer cette personne et devrez attendre 48 heures avant de la bloquer de nouveau.
Je souhaite signaler ce commentaire comme:
Merci
Le commentaire signalé sera révisé par nos modérateurs